Saturday, May 28, 2016
00:06 UTC
  |  Log In   |  Register Free
Airport Search:

Fairfield County Airport
(KFDW)

Fairfield County Airport Diagram
No Airport Diagram Available

FAA data valid effective Mar 31 2016 - May 26 2016 (unless otherwise noted).

 
 
 
 
 
 
 
 
 
 
 
 
 
 
Current Aviation Weather for KFDW

Weather Summary


The most recent METAR observation for FDW was updated at: 12:55 UTC
METAR for KFDW is not available. Closest METAR is for KCUB
KFDW  (most recent observation was updatred at 27:23 UTC)
272355Z AUTO 11004KT 10SM CLR 27/16 A3006 RMK AO1

KCUB  (21.5 nm NW)   (most recent observation was updated at 27:23 UTC)
272353Z AUTO VRB03KT 10SM CLR 29/13 A3006 RMK AO2 SLP177 T02890133 10322 20289 55004

KCAE  (22.6 nm NE)   (most recent observation was updated at 27:23 UTC)
272356Z 12008KT 10SM CLR 28/14 A3005 RMK AO2 SLP171 T02830139 10317 20283 55004

TAF for KFDW is not available.
KCUB  (21.5 nm NW)   (most recent observation was updatred at 27:23 UTC)
272337Z 2800/2824 VRB04KT P6SM SCT120 FM281400 09006KT P6SM SCT040 BKN120


KCAE  (22.6 nm NE)   (most recent observation was updatred at 27:23 UTC)
272337Z 2800/2824 VRB05KT P6SM FEW070 FM280600 VRB03KT P6SM SCT120 FM281400 09008KT P6SM SCT040 BKN120


KMMT  (28.3 nm NW)   (most recent observation was updatred at 27:23 UTC)
272300Z 2723/2905 13006KT 9999 FEW030 QNH3003INS BECMG 2817/2818 04012KT 8000 -SHRA BKN030 OVC120 QNH3000INS BECMG 2902/2903 04012KT 8000 -SHRA OVC015 QNH2998INS TX29/2723Z TN16/2812Z
GlobalAir.com is loading additional information.
 Current Weather at FDW
82.0 F° (28.0 C°)

Southeast winds at 5.8 mph
Pressure:
30.05 in
Humidity:
48%
Wind:
Southeast at 5.8 mph
Dew Point:
60.8 F° (16.0 C°)
Visibility:
10.00 mi
FDW NOAA Radar




Find All Airport Services Find A Hotel Find A Rental Car Find A Golf Course Find A Restaurant $100 Hamburger



Airport Weather Forecast for KFDW

Translated METAR for KFDW (2355 UTC)
METAR:
KFDW 272355Z AUTO 11004KT 10SM CLR 27/16 A3006 RMK AO1
Conditions at:
KFDW (Fairfield County, SC) observed 2355 UTC 27 May 2016
Temperature:
27°C (80.6°F)
Dewpoint:
16°C (60.8°F) [RH = 51]
Pressure:
30.06 inches Hg (1017.9 mb)
Winds:
from the ESE (110 degrees) at 4.6 mph (4 knots: 2.1 m/s)
Visibility:
10 mile(s)
Ceiling:
at least 12,000 feet AGL
Clouds:
Clear below 12,000 feet AGL
Remarks:
site is un-manned
site is automated and does NOT have a precipitation sensor

Translated TAF for KCUB (Jim Hamilton L B Owens, SC) (2337 UTC)
TAF text:
KCUB 272337Z 2800/2824 VRB04KT P6SM SCT120
Forecast period:
Saturday May 28 2016 00:00 UTC - Saturday May 28 2016 24:00 UTC
Forecast type:
FROM: standard forecast or significant change
Winds:
variable wind direction at 4.6 mph (4 knots: 2.1 m/s)
Visibility:
6 or more mile(s) (9.7+ km)
Ceiling:
at least 12,000 feet AGL
Clouds:
Scattered Clouds at 12,000 feet AGL
Weather:
no significant weather observed at this time
TAF text:
FM281400 09006KT P6SM SCT040 BKN120
Forecast period:
Saturday May 28 2016 14:00 UTC - Saturday May 28 2016 24:00 UTC
Forecast type:
FROM: standard forecast or significant change
Winds:
from the E (090 degrees) at 6.9 mph (6 knots: 3.1 m/s)
Visibility:
6 or more mile(s) (9.7+ km)
Ceiling:
12,000 feet AGL
Clouds:
Scattered Clouds at 4,000 feet AGL
Broken Cloud Cover at 12,000 feet AGL
Weather:
no significant weather observed at this time
FBO's on the Field
FBO Company Facility Photos Services Transportation Aviation Fuel Prices: Prices include tax
Catering Weather Repair Courtesy Rental Type 100LL JetA JetA+ MOGAS 8087
 
S & S Aviation Services

This FBO has not yet been rated
FS:Shell
Last Updated: May-13
Login to update fuel prices
SS:
Contact S & S Aviation ServicesMore FBO Information
 
Add another FBO Facility Photos Catering Weather Repair Courtesy Rental Type 100LL JetA JetA+ MOGAS 8087
Services Transportation Aviation Fuel Prices: Prices include tax


model-print
model-print
model-print
model-print